Time;durP1;ratioP1;P1;durP2;ratioP2;P2;SDS_P1;SDS_P2;PMS_P1;PMS_P2;Temp;Humidity;BMP_temperature;BMP_pressure;BME280_temperature;BME280_humidity;BME280_pressure;Samples;Min_cycle;Max_cycle;Signal;HPM_P1;HPM_P2
2023/08/30 00:00:50;;;;;;;0.00;0.00;;;;;;;;;;1751302;28;20237;-77
2023/08/30 00:01:42;;;;;;;0.00;0.00;;;;;;;;;;1753720;28;20223;-77
2023/08/30 00:02:33;;;;;;;0.00;0.00;;;;;;;;;;1754079;28;20580;-78
2023/08/30 00:03:24;;;;;;;0.00;0.00;;;;;;;;;;1754222;28;20205;-78
2023/08/30 00:04:16;;;;;;;0.00;0.00;;;;;;;;;;1754728;28;20197;-78
2023/08/30 00:05:09;;;;;;;0.00;0.00;;;;;;;;;;1753732;28;20622;-78
2023/08/30 00:06:03;;;;;;;0.00;0.00;;;;;;;;;;1752323;28;20622;-78
2023/08/30 00:06:55;;;;;;;0.00;0.00;;;;;;;;;;1753448;28;20232;-78
2023/08/30 00:07:46;;;;;;;0.00;0.00;;;;;;;;;;1753521;28;20668;-78
2023/08/30 00:08:38;;;;;;;0.00;0.00;;;;;;;;;;1754679;28;20224;-78
2023/08/30 00:09:29;;;;;;;0.00;0.00;;;;;;;;;;1751045;28;20601;-78
2023/08/30 00:10:21;;;;;;;0.00;0.00;;;;;;;;;;1752401;28;20586;-78
2023/08/30 00:11:15;;;;;;;0.00;0.00;;;;;;;;;;1753329;28;20532;-78
2023/08/30 00:12:06;;;;;;;0.00;0.00;;;;;;;;;;1750658;28;20198;-78
2023/08/30 00:12:57;;;;;;;0.00;0.00;;;;;;;;;;1753474;28;20627;-78
2023/08/30 00:13:49;;;;;;;0.00;0.00;;;;;;;;;;1754714;28;20293;-78
2023/08/30 00:14:40;;;;;;;0.00;0.00;;;;;;;;;;1753620;28;20247;-78
2023/08/30 00:15:31;;;;;;;0.00;0.00;;;;;;;;;;1752721;28;20326;-78
2023/08/30 00:16:23;;;;;;;0.00;0.00;;;;;;;;;;1752274;28;20202;-78
2023/08/30 00:17:14;;;;;;;0.00;0.00;;;;;;;;;;1752237;28;20240;-78
2023/08/30 00:18:06;;;;;;;0.00;0.00;;;;;;;;;;1753472;28;20276;-78
2023/08/30 00:18:58;;;;;;;0.00;0.00;;;;;;;;;;1754929;28;20202;-78
2023/08/30 00:19:49;;;;;;;0.00;0.00;;;;;;;;;;1753532;28;20259;-78
2023/08/30 00:20:41;;;;;;;0.08;0.08;;;;;;;;;;1752533;28;20244;-78
2023/08/30 00:21:32;;;;;;;0.00;0.00;;;;;;;;;;1749692;28;20252;-78
2023/08/30 00:22:24;;;;;;;0.00;0.00;;;;;;;;;;1752730;28;20655;-78
2023/08/30 00:23:16;;;;;;;0.00;0.00;;;;;;;;;;1753593;28;20313;-78
2023/08/30 00:24:07;;;;;;;0.00;0.00;;;;;;;;;;1751809;28;20633;-78
2023/08/30 00:24:59;;;;;;;0.00;0.00;;;;;;;;;;1753175;28;20197;-78
2023/08/30 00:25:50;;;;;;;0.00;0.00;;;;;;;;;;1752292;28;20713;-77
2023/08/30 00:26:44;;;;;;;0.00;0.00;;;;;;;;;;1749054;28;20206;-77
2023/08/30 00:27:35;;;;;;;0.00;0.00;;;;;;;;;;1753401;28;20237;-77
2023/08/30 00:28:26;;;;;;;0.00;0.00;;;;;;;;;;1753502;28;20237;-77
2023/08/30 00:29:18;;;;;;;0.00;0.00;;;;;;;;;;1753974;28;20229;-77
2023/08/30 00:30:09;;;;;;;0.00;0.00;;;;;;;;;;1753455;28;20243;-78
2023/08/30 00:31:01;;;;;;;0.00;0.00;;;;;;;;;;1752258;28;20248;-78
2023/08/30 00:31:52;;;;;;;0.00;0.00;;;;;;;;;;1752925;28;20703;-78
2023/08/30 00:32:44;;;;;;;0.00;0.00;;;;;;;;;;1753155;28;20205;-78
2023/08/30 00:33:37;;;;;;;0.00;0.00;;;;;;;;;;1754567;28;20630;-78
2023/08/30 00:34:28;;;;;;;0.00;0.00;;;;;;;;;;1750493;28;20213;-78
2023/08/30 00:35:19;;;;;;;0.00;0.00;;;;;;;;;;1752302;28;20202;-78
2023/08/30 00:36:11;;;;;;;0.00;0.00;;;;;;;;;;1751983;28;20208;-78
2023/08/30 00:37:02;;;;;;;0.00;0.00;;;;;;;;;;1749619;28;20256;-78
2023/08/30 00:37:53;;;;;;;0.00;0.00;;;;;;;;;;1753126;28;20197;-78
2023/08/30 00:38:45;;;;;;;0.00;0.00;;;;;;;;;;1751776;28;20197;-78
2023/08/30 00:39:38;;;;;;;0.00;0.00;;;;;;;;;;1751056;28;20213;-78
2023/08/30 00:40:30;;;;;;;0.00;0.00;;;;;;;;;;1752421;28;20201;-78
2023/08/30 00:41:21;;;;;;;0.00;0.00;;;;;;;;;;1753147;28;20229;-78
2023/08/30 00:42:13;;;;;;;0.00;0.00;;;;;;;;;;1753228;28;20583;-78
2023/08/30 00:43:05;;;;;;;0.00;0.00;;;;;;;;;;1752752;28;20297;-78
2023/08/30 00:43:56;;;;;;;0.00;0.00;;;;;;;;;;1754319;28;20229;-78
2023/08/30 00:44:48;;;;;;;0.00;0.00;;;;;;;;;;1752805;28;20229;-78
2023/08/30 00:45:41;;;;;;;0.00;0.00;;;;;;;;;;1751729;28;20320;-78
2023/08/30 00:46:33;;;;;;;0.00;0.00;;;;;;;;;;1749288;28;20298;-78
2023/08/30 00:47:24;;;;;;;0.00;0.00;;;;;;;;;;1752904;28;20205;-78
2023/08/30 00:48:18;;;;;;;0.00;0.00;;;;;;;;;;1751466;28;20217;-78
2023/08/30 00:49:10;;;;;;;0.00;0.00;;;;;;;;;;1752610;28;20523;-78
2023/08/30 00:50:03;;;;;;;0.00;0.00;;;;;;;;;;1752511;28;20197;-78
2023/08/30 00:50:54;;;;;;;0.00;0.00;;;;;;;;;;1751573;28;20257;-78
2023/08/30 00:51:45;;;;;;;0.00;0.00;;;;;;;;;;1752226;28;20202;-78
2023/08/30 00:52:37;;;;;;;0.00;0.00;;;;;;;;;;1753234;28;20526;-78
2023/08/30 00:53:28;;;;;;;0.00;0.00;;;;;;;;;;1752117;28;20296;-78
2023/08/30 00:54:21;;;;;;;0.00;0.00;;;;;;;;;;1753131;28;20258;-78
2023/08/30 00:55:13;;;;;;;0.00;0.00;;;;;;;;;;1751505;28;20404;-78
2023/08/30 00:56:04;;;;;;;0.00;0.00;;;;;;;;;;1752592;28;20198;-78
2023/08/30 00:56:56;;;;;;;0.00;0.00;;;;;;;;;;1752759;28;20202;-78
2023/08/30 00:57:48;;;;;;;0.00;0.00;;;;;;;;;;1752449;28;20722;-78
2023/08/30 00:58:39;;;;;;;0.00;0.00;;;;;;;;;;1754276;28;20201;-78
2023/08/30 00:59:33;;;;;;;0.00;0.00;;;;;;;;;;1753084;28;20280;-78
2023/08/30 01:00:24;;;;;;;0.00;0.00;;;;;;;;;;1752254;28;20635;-78
2023/08/30 01:01:16;;;;;;;0.00;0.00;;;;;;;;;;1752923;28;20194;-78
2023/08/30 01:02:08;;;;;;;0.00;0.00;;;;;;;;;;1753029;28;20213;-78
2023/08/30 01:02:59;;;;;;;0.00;0.00;;;;;;;;;;1751280;28;20240;-78
2023/08/30 01:03:51;;;;;;;0.00;0.00;;;;;;;;;;1753328;28;20211;-78
2023/08/30 01:04:42;;;;;;;0.00;0.00;;;;;;;;;;1752900;28;20648;-78
2023/08/30 01:05:34;;;;;;;0.00;0.00;;;;;;;;;;1751921;28;20239;-78
2023/08/30 01:06:26;;;;;;;0.00;0.00;;;;;;;;;;1752672;28;20561;-77
2023/08/30 01:07:19;;;;;;;0.00;0.00;;;;;;;;;;1753011;28;20531;-77
2023/08/30 01:08:11;;;;;;;0.00;0.00;;;;;;;;;;1749260;28;20226;-78
2023/08/30 01:09:03;;;;;;;0.00;0.00;;;;;;;;;;1752000;28;20598;-78
2023/08/30 01:09:55;;;;;;;0.00;0.00;;;;;;;;;;1750658;28;20293;-77
2023/08/30 01:10:51;;;;;;;0.00;0.00;;;;;;;;;;1751997;28;20321;-77
2023/08/30 01:11:46;;;;;;;0.00;0.00;;;;;;;;;;1752905;28;20193;-78
2023/08/30 01:12:41;;;;;;;0.00;0.00;;;;;;;;;;1752608;28;20296;-78
2023/08/30 01:13:37;;;;;;;0.00;0.00;;;;;;;;;;1753898;28;20230;-78
2023/08/30 01:14:31;;;;;;;0.00;0.00;;;;;;;;;;1750002;28;20270;-78
2023/08/30 01:15:24;;;;;;;0.00;0.00;;;;;;;;;;1751877;28;20194;-78
2023/08/30 01:16:16;;;;;;;0.00;0.00;;;;;;;;;;1752554;28;20354;-78
2023/08/30 01:17:08;;;;;;;0.00;0.00;;;;;;;;;;1752955;28;20654;-78
2023/08/30 01:18:00;;;;;;;0.00;0.00;;;;;;;;;;1752657;28;20201;-78
2023/08/30 01:18:53;;;;;;;0.00;0.00;;;;;;;;;;1754034;28;20251;-78
2023/08/30 01:19:49;;;;;;;0.00;0.00;;;;;;;;;;1752702;28;20209;-78
2023/08/30 01:20:44;;;;;;;0.00;0.00;;;;;;;;;;1753136;28;20229;-78
2023/08/30 01:21:42;;;;;;;0.00;0.00;;;;;;;;;;1746267;28;20213;-78
2023/08/30 01:22:39;;;;;;;0.00;0.00;;;;;;;;;;1752999;28;20201;-78
2023/08/30 01:23:40;;;;;;;0.00;0.00;;;;;;;;;;1748613;28;20194;-78
2023/08/30 01:24:33;;;;;;;0.00;0.00;;;;;;;;;;1750757;28;20608;-78
2023/08/30 01:25:33;;;;;;;0.00;0.00;;;;;;;;;;1751673;28;20205;-78
2023/08/30 01:26:28;;;;;;;0.00;0.00;;;;;;;;;;1750967;28;20202;-78
2023/08/30 01:27:20;;;;;;;0.00;0.00;;;;;;;;;;1753004;28;20217;-79
2023/08/30 01:28:12;;;;;;;0.00;0.00;;;;;;;;;;1748802;28;20226;-78
2023/08/30 01:29:04;;;;;;;0.00;0.00;;;;;;;;;;1752235;28;20278;-78
2023/08/30 01:29:57;;;;;;;0.00;0.00;;;;;;;;;;1753337;28;20229;-79
2023/08/30 01:30:48;;;;;;;0.00;0.00;;;;;;;;;;1752170;28;20598;-79
2023/08/30 01:31:40;;;;;;;0.00;0.00;;;;;;;;;;1750393;28;20209;-78
2023/08/30 01:32:33;;;;;;;0.00;0.00;;;;;;;;;;1753549;28;20236;-78
2023/08/30 01:33:27;;;;;;;0.00;0.00;;;;;;;;;;1752983;28;20253;-78
2023/08/30 01:34:18;;;;;;;0.00;0.00;;;;;;;;;;1754296;28;20202;-78
2023/08/30 01:35:10;;;;;;;0.00;0.00;;;;;;;;;;1753229;28;20623;-79
2023/08/30 01:36:02;;;;;;;0.00;0.00;;;;;;;;;;1751844;28;20622;-78
2023/08/30 01:36:53;;;;;;;0.00;0.00;;;;;;;;;;1749906;28;20204;-78
2023/08/30 01:37:46;;;;;;;0.00;0.00;;;;;;;;;;1753347;28;20213;-78
2023/08/30 01:38:38;;;;;;;0.00;0.00;;;;;;;;;;1754652;28;20904;-78
2023/08/30 01:39:30;;;;;;;0.00;0.00;;;;;;;;;;1750253;28;20197;-78
2023/08/30 01:40:22;;;;;;;0.00;0.00;;;;;;;;;;1752282;28;20240;-78
2023/08/30 01:41:13;;;;;;;0.00;0.00;;;;;;;;;;1753318;28;20835;-78
2023/08/30 01:42:05;;;;;;;0.00;0.00;;;;;;;;;;1753330;28;20297;-78
2023/08/30 01:42:58;;;;;;;0.00;0.00;;;;;;;;;;1752766;28;20667;-77
2023/08/30 01:43:52;;;;;;;0.00;0.00;;;;;;;;;;1752538;28;20603;-77
2023/08/30 01:44:44;;;;;;;0.00;0.00;;;;;;;;;;1752770;28;20205;-77
2023/08/30 01:45:37;;;;;;;0.00;0.00;;;;;;;;;;1751786;28;20194;-77
2023/08/30 01:46:28;;;;;;;0.00;0.00;;;;;;;;;;1752807;28;20689;-77
2023/08/30 01:47:19;;;;;;;0.00;0.00;;;;;;;;;;1752518;28;20225;-77
2023/08/30 01:48:13;;;;;;;0.00;0.00;;;;;;;;;;1752907;28;20258;-77
2023/08/30 01:49:05;;;;;;;0.00;0.00;;;;;;;;;;1754077;28;20209;-77
2023/08/30 01:49:57;;;;;;;0.00;0.00;;;;;;;;;;1750532;28;20973;-77
2023/08/30 01:50:49;;;;;;;0.00;0.00;;;;;;;;;;1751898;28;20229;-77
2023/08/30 01:51:40;;;;;;;0.00;0.00;;;;;;;;;;1752437;28;20790;-77
2023/08/30 01:52:32;;;;;;;0.00;0.00;;;;;;;;;;1753205;28;20202;-77
2023/08/30 01:53:24;;;;;;;0.00;0.00;;;;;;;;;;1753101;28;20198;-77
2023/08/30 01:54:17;;;;;;;0.00;0.00;;;;;;;;;;1753972;28;20774;-77
2023/08/30 01:55:09;;;;;;;0.00;0.00;;;;;;;;;;1750560;28;20273;-77
2023/08/30 01:56:01;;;;;;;0.00;0.00;;;;;;;;;;1749381;28;20244;-77
2023/08/30 01:56:52;;;;;;;0.00;0.00;;;;;;;;;;1752361;28;20202;-76
2023/08/30 01:57:43;;;;;;;0.00;0.00;;;;;;;;;;1752377;28;20223;-76
2023/08/30 01:58:37;;;;;;;0.00;0.00;;;;;;;;;;1748268;28;20703;-77
2023/08/30 01:59:28;;;;;;;0.00;0.00;;;;;;;;;;1752781;28;20637;-77
2023/08/30 02:00:20;;;;;;;0.00;0.00;;;;;;;;;;1751566;28;20456;-77
2023/08/30 02:01:11;;;;;;;0.00;0.00;;;;;;;;;;1752640;28;20268;-77
2023/08/30 02:02:04;;;;;;;0.00;0.00;;;;;;;;;;1752414;28;20210;-77
2023/08/30 02:02:56;;;;;;;0.00;0.00;;;;;;;;;;1751402;28;20288;-77
2023/08/30 02:03:47;;;;;;;0.00;0.00;;;;;;;;;;1750206;28;20201;-77
2023/08/30 02:04:38;;;;;;;0.00;0.00;;;;;;;;;;1752672;28;20202;-77
2023/08/30 02:05:30;;;;;;;0.00;0.00;;;;;;;;;;1752921;28;21663;-77
2023/08/30 02:06:22;;;;;;;0.00;0.00;;;;;;;;;;1753648;28;20516;-77
2023/08/30 02:07:14;;;;;;;0.00;0.00;;;;;;;;;;1754128;28;20206;-77
2023/08/30 02:08:09;;;;;;;0.00;0.00;;;;;;;;;;1753524;28;20262;-77
2023/08/30 02:09:04;;;;;;;0.00;0.00;;;;;;;;;;1752739;28;20256;-77
2023/08/30 02:09:57;;;;;;;0.00;0.00;;;;;;;;;;1751805;28;20648;-77
2023/08/30 02:10:53;;;;;;;0.00;0.00;;;;;;;;;;1751623;28;20637;-77
2023/08/30 02:11:45;;;;;;;0.00;0.00;;;;;;;;;;1753887;28;20198;-77
2023/08/30 02:12:47;;;;;;;0.00;0.00;;;;;;;;;;1754169;28;20248;-77
2023/08/30 02:13:40;;;;;;;0.00;0.00;;;;;;;;;;1752920;28;20985;-77
2023/08/30 02:14:32;;;;;;;0.00;0.00;;;;;;;;;;1750645;28;20201;-78
2023/08/30 02:15:26;;;;;;;0.00;0.00;;;;;;;;;;1751885;28;20209;-78
2023/08/30 02:16:18;;;;;;;0.00;0.00;;;;;;;;;;1752132;28;20240;-78
2023/08/30 02:17:09;;;;;;;0.00;0.00;;;;;;;;;;1751013;28;20806;-78
2023/08/30 02:18:01;;;;;;;0.00;0.00;;;;;;;;;;1753716;28;20250;-78
2023/08/30 02:18:52;;;;;;;0.00;0.00;;;;;;;;;;1752469;28;20241;-78
2023/08/30 02:19:45;;;;;;;0.00;0.00;;;;;;;;;;1753971;28;20198;-78
2023/08/30 02:20:36;;;;;;;0.00;0.00;;;;;;;;;;1753126;28;20241;-78
2023/08/30 02:21:29;;;;;;;0.00;0.00;;;;;;;;;;1753868;28;20193;-78
2023/08/30 02:22:20;;;;;;;0.00;0.00;;;;;;;;;;1753402;28;20288;-77
2023/08/30 02:23:12;;;;;;;0.00;0.00;;;;;;;;;;1753493;28;20284;-77
2023/08/30 02:24:03;;;;;;;0.00;0.00;;;;;;;;;;1752579;28;20231;-77
2023/08/30 02:24:54;;;;;;;0.00;0.00;;;;;;;;;;1753642;28;20516;-77
2023/08/30 02:25:47;;;;;;;0.00;0.00;;;;;;;;;;1752565;28;20298;-77
2023/08/30 02:26:38;;;;;;;0.00;0.00;;;;;;;;;;1754027;28;20324;-77
2023/08/30 02:27:30;;;;;;;0.00;0.00;;;;;;;;;;1752293;28;20619;-77
2023/08/30 02:28:22;;;;;;;0.00;0.00;;;;;;;;;;1753564;28;20489;-77
2023/08/30 02:29:14;;;;;;;0.00;0.00;;;;;;;;;;1754906;28;20206;-77
2023/08/30 02:30:06;;;;;;;0.00;0.00;;;;;;;;;;1753923;28;20259;-77
2023/08/30 02:30:58;;;;;;;0.00;0.00;;;;;;;;;;1752792;28;20261;-78
2023/08/30 02:31:49;;;;;;;0.00;0.00;;;;;;;;;;1753755;28;20648;-78
2023/08/30 02:32:40;;;;;;;0.00;0.00;;;;;;;;;;1754428;28;20340;-78
2023/08/30 02:33:32;;;;;;;0.00;0.00;;;;;;;;;;1754265;28;20280;-78
2023/08/30 02:34:23;;;;;;;0.00;0.00;;;;;;;;;;1754102;28;20224;-78
2023/08/30 02:35:14;;;;;;;0.00;0.00;;;;;;;;;;1752076;28;20594;-78
2023/08/30 02:36:07;;;;;;;0.00;0.00;;;;;;;;;;1752556;28;20263;-78
2023/08/30 02:36:59;;;;;;;0.00;0.00;;;;;;;;;;1753825;28;20291;-78
2023/08/30 02:37:50;;;;;;;0.00;0.00;;;;;;;;;;1753529;28;20662;-78
2023/08/30 02:38:42;;;;;;;0.00;0.00;;;;;;;;;;1752780;28;20198;-78
2023/08/30 02:39:33;;;;;;;0.00;0.00;;;;;;;;;;1750279;28;20563;-77
2023/08/30 02:40:25;;;;;;;0.00;0.00;;;;;;;;;;1752066;28;20205;-77
2023/08/30 02:41:16;;;;;;;0.00;0.00;;;;;;;;;;1755024;28;20241;-77
2023/08/30 02:42:07;;;;;;;0.00;0.00;;;;;;;;;;1758242;28;20198;-77
2023/08/30 02:42:59;;;;;;;0.00;0.00;;;;;;;;;;1753778;28;20205;-77
2023/08/30 02:43:50;;;;;;;0.00;0.00;;;;;;;;;;1752369;28;20244;-77
2023/08/30 02:44:43;;;;;;;0.00;0.00;;;;;;;;;;1753992;28;20220;-77
2023/08/30 02:45:34;;;;;;;0.00;0.00;;;;;;;;;;1750393;28;20247;-76
2023/08/30 02:46:26;;;;;;;0.00;0.00;;;;;;;;;;1750845;28;20244;-77
2023/08/30 02:47:17;;;;;;;0.00;0.00;;;;;;;;;;1752077;28;20225;-77
2023/08/30 02:48:08;;;;;;;0.00;0.00;;;;;;;;;;1753274;28;20301;-76
2023/08/30 02:49:01;;;;;;;0.00;0.00;;;;;;;;;;1752347;28;20241;-76
2023/08/30 02:49:52;;;;;;;0.00;0.00;;;;;;;;;;1753492;28;20252;-76
2023/08/30 02:50:44;;;;;;;0.00;0.00;;;;;;;;;;1752709;28;20240;-77
2023/08/30 02:51:35;;;;;;;0.00;0.00;;;;;;;;;;1753952;28;20197;-77
2023/08/30 02:52:27;;;;;;;0.00;0.00;;;;;;;;;;1753247;28;20310;-77
2023/08/30 02:53:18;;;;;;;0.00;0.00;;;;;;;;;;1749540;28;20238;-77
2023/08/30 02:54:12;;;;;;;0.00;0.00;;;;;;;;;;1753070;28;20225;-76
2023/08/30 02:55:03;;;;;;;0.00;0.00;;;;;;;;;;1751416;28;20205;-77
2023/08/30 02:55:55;;;;;;;0.00;0.00;;;;;;;;;;1751973;28;20725;-77
2023/08/30 02:56:47;;;;;;;0.00;0.00;;;;;;;;;;1753486;28;20202;-77
2023/08/30 02:57:38;;;;;;;0.00;0.00;;;;;;;;;;1753952;28;20248;-77
2023/08/30 02:58:29;;;;;;;0.00;0.00;;;;;;;;;;1746264;28;20290;-77
2023/08/30 02:59:21;;;;;;;0.00;0.00;;;;;;;;;;1746829;28;20217;-77
2023/08/30 03:00:15;;;;;;;0.00;0.00;;;;;;;;;;1745944;28;20230;-77
2023/08/30 03:01:06;;;;;;;0.00;0.00;;;;;;;;;;1736062;28;20542;-77
2023/08/30 03:01:58;;;;;;;0.00;0.00;;;;;;;;;;1745268;28;20198;-77
2023/08/30 03:02:50;;;;;;;0.00;0.00;;;;;;;;;;1746279;28;20240;-77
2023/08/30 03:03:41;;;;;;;0.00;0.00;;;;;;;;;;1746651;28;20256;-77
2023/08/30 03:04:33;;;;;;;0.00;0.00;;;;;;;;;;1746387;28;20230;-77
2023/08/30 03:05:24;;;;;;;0.00;0.00;;;;;;;;;;1745855;28;20209;-77
2023/08/30 03:06:15;;;;;;;0.00;0.00;;;;;;;;;;1746140;28;20667;-77
2023/08/30 03:07:07;;;;;;;0.00;0.00;;;;;;;;;;1746374;28;20259;-77
2023/08/30 03:07:58;;;;;;;0.00;0.00;;;;;;;;;;1746423;28;20301;-76
2023/08/30 03:08:50;;;;;;;0.00;0.00;;;;;;;;;;1746246;28;20313;-76
2023/08/30 03:09:41;;;;;;;0.00;0.00;;;;;;;;;;1746435;28;20225;-76
2023/08/30 03:10:32;;;;;;;0.00;0.00;;;;;;;;;;1745497;28;20226;-76
2023/08/30 03:11:24;;;;;;;0.00;0.00;;;;;;;;;;1746480;28;20213;-76
2023/08/30 03:12:15;;;;;;;0.00;0.00;;;;;;;;;;1746400;28;20245;-76
2023/08/30 03:13:07;;;;;;;0.00;0.00;;;;;;;;;;1746078;28;20476;-76
2023/08/30 03:13:58;;;;;;;0.00;0.00;;;;;;;;;;1746390;28;20242;-76
2023/08/30 03:14:49;;;;;;;0.00;0.00;;;;;;;;;;1745979;28;20699;-76
2023/08/30 03:15:42;;;;;;;0.00;0.00;;;;;;;;;;1745530;28;20258;-76
2023/08/30 03:16:33;;;;;;;0.00;0.00;;;;;;;;;;1746721;28;20238;-76
2023/08/30 03:17:24;;;;;;;0.00;0.00;;;;;;;;;;1746297;28;20392;-76
2023/08/30 03:18:16;;;;;;;0.00;0.00;;;;;;;;;;1746664;28;20194;-76
2023/08/30 03:19:08;;;;;;;0.00;0.00;;;;;;;;;;1746247;28;20258;-77
2023/08/30 03:20:00;;;;;;;0.00;0.00;;;;;;;;;;1746595;28;20727;-77
2023/08/30 03:21:00;;;;;;;0.00;0.00;;;;;;;;;;1745677;28;20316;-77
2023/08/30 03:21:51;;;;;;;0.00;0.00;;;;;;;;;;1746332;28;20746;-77
2023/08/30 03:22:42;;;;;;;0.00;0.00;;;;;;;;;;1746736;28;20325;-77
2023/08/30 03:23:35;;;;;;;0.00;0.00;;;;;;;;;;1745943;28;20220;-77
2023/08/30 03:24:26;;;;;;;0.00;0.00;;;;;;;;;;1745340;28;20580;-77
2023/08/30 03:25:18;;;;;;;0.00;0.00;;;;;;;;;;1745284;28;20194;-77
2023/08/30 03:26:09;;;;;;;0.00;0.00;;;;;;;;;;1742573;28;20237;-77
2023/08/30 03:27:02;;;;;;;0.00;0.00;;;;;;;;;;1745556;28;20198;-77
2023/08/30 03:27:53;;;;;;;0.00;0.00;;;;;;;;;;1746053;28;20232;-77
2023/08/30 03:28:44;;;;;;;0.00;0.00;;;;;;;;;;1746506;28;20202;-77
2023/08/30 03:29:36;;;;;;;0.00;0.00;;;;;;;;;;1744404;28;20284;-77
2023/08/30 03:30:28;;;;;;;0.00;0.00;;;;;;;;;;1745375;28;20319;-77
2023/08/30 03:31:21;;;;;;;0.00;0.00;;;;;;;;;;1746291;28;20293;-77
2023/08/30 03:32:16;;;;;;;0.00;0.00;;;;;;;;;;1746113;28;20289;-77
2023/08/30 03:33:07;;;;;;;0.00;0.00;;;;;;;;;;1733133;28;20196;-77
2023/08/30 03:33:59;;;;;;;0.00;0.00;;;;;;;;;;1739623;28;20206;-76
2023/08/30 03:34:50;;;;;;;0.00;0.00;;;;;;;;;;1744226;28;20735;-77
2023/08/30 03:35:42;;;;;;;0.00;0.00;;;;;;;;;;1745105;28;20266;-76
2023/08/30 03:36:34;;;;;;;0.00;0.00;;;;;;;;;;1746474;28;20328;-76
2023/08/30 03:37:25;;;;;;;0.00;0.00;;;;;;;;;;1746178;28;20297;-76
2023/08/30 03:38:16;;;;;;;0.00;0.00;;;;;;;;;;1746144;28;20570;-76
2023/08/30 03:39:08;;;;;;;0.00;0.00;;;;;;;;;;1746309;28;20195;-76
2023/08/30 03:39:59;;;;;;;0.00;0.00;;;;;;;;;;1746168;28;20276;-76
2023/08/30 03:40:54;;;;;;;0.00;0.00;;;;;;;;;;1745397;28;20295;-76
2023/08/30 03:41:45;;;;;;;0.00;0.00;;;;;;;;;;1745969;28;20655;-76
2023/08/30 03:42:37;;;;;;;0.00;0.00;;;;;;;;;;1746570;28;20210;-77
2023/08/30 03:43:29;;;;;;;0.00;0.00;;;;;;;;;;1745004;28;20644;-77
2023/08/30 03:44:20;;;;;;;0.00;0.00;;;;;;;;;;1738480;28;20230;-76
2023/08/30 03:45:12;;;;;;;0.00;0.00;;;;;;;;;;1745705;28;20487;-76
2023/08/30 03:46:03;;;;;;;0.00;0.00;;;;;;;;;;1745714;28;20329;-77
2023/08/30 03:46:56;;;;;;;0.00;0.00;;;;;;;;;;1745926;28;20213;-77
2023/08/30 03:47:48;;;;;;;0.00;0.00;;;;;;;;;;1746230;28;20532;-77
2023/08/30 03:48:39;;;;;;;0.00;0.00;;;;;;;;;;1742678;28;20305;-77
2023/08/30 03:49:31;;;;;;;0.00;0.00;;;;;;;;;;1740745;28;20537;-77
2023/08/30 03:50:22;;;;;;;0.00;0.00;;;;;;;;;;1745081;28;20202;-77
2023/08/30 03:51:14;;;;;;;0.00;0.00;;;;;;;;;;1746051;28;20289;-76
2023/08/30 03:52:06;;;;;;;0.00;0.00;;;;;;;;;;1746188;28;20213;-78
2023/08/30 03:52:57;;;;;;;0.00;0.00;;;;;;;;;;1748402;28;20229;-77
2023/08/30 03:53:48;;;;;;;0.00;0.00;;;;;;;;;;1740516;28;20203;-78
2023/08/30 03:54:40;;;;;;;0.00;0.00;;;;;;;;;;1742496;28;20197;-78
2023/08/30 03:55:31;;;;;;;0.00;0.00;;;;;;;;;;1745260;28;20257;-78
2023/08/30 03:56:23;;;;;;;0.00;0.00;;;;;;;;;;1745929;28;20320;-77
2023/08/30 03:57:14;;;;;;;0.00;0.00;;;;;;;;;;1746008;28;20564;-77
2023/08/30 03:58:05;;;;;;;0.00;0.00;;;;;;;;;;1748793;28;20237;-77
2023/08/30 03:58:57;;;;;;;0.00;0.00;;;;;;;;;;1752969;28;20229;-77
2023/08/30 03:59:49;;;;;;;0.00;0.00;;;;;;;;;;1753116;28;20609;-77
2023/08/30 04:00:40;;;;;;;0.00;0.00;;;;;;;;;;1752446;28;20228;-76
2023/08/30 04:01:32;;;;;;;0.00;0.00;;;;;;;;;;1753220;28;20194;-77
2023/08/30 04:02:24;;;;;;;0.00;0.00;;;;;;;;;;1752782;28;20202;-76
2023/08/30 04:03:16;;;;;;;0.00;0.00;;;;;;;;;;1753035;28;20205;-76
2023/08/30 04:04:08;;;;;;;0.00;0.00;;;;;;;;;;1751809;28;20225;-76
2023/08/30 04:04:59;;;;;;;0.00;0.00;;;;;;;;;;1750060;28;20230;-76
2023/08/30 04:05:56;;;;;;;0.00;0.00;;;;;;;;;;1751880;28;20229;-76
2023/08/30 04:06:47;;;;;;;0.00;0.00;;;;;;;;;;1749491;28;20202;-77
2023/08/30 04:07:38;;;;;;;0.00;0.00;;;;;;;;;;1753645;28;20258;-78
2023/08/30 04:08:30;;;;;;;0.00;0.00;;;;;;;;;;1752189;28;20504;-77
2023/08/30 04:09:21;;;;;;;0.00;0.00;;;;;;;;;;1752460;28;20410;-77
2023/08/30 04:10:12;;;;;;;0.00;0.00;;;;;;;;;;1752588;28;20194;-78
2023/08/30 04:11:04;;;;;;;0.00;0.00;;;;;;;;;;1752783;28;20221;-78
2023/08/30 04:11:55;;;;;;;0.00;0.00;;;;;;;;;;1748458;28;20234;-78
2023/08/30 04:12:46;;;;;;;0.00;0.00;;;;;;;;;;1753101;28;20232;-78
2023/08/30 04:13:38;;;;;;;0.00;0.00;;;;;;;;;;1751718;28;20289;-78
2023/08/30 04:14:29;;;;;;;0.00;0.00;;;;;;;;;;1752547;28;20300;-78
2023/08/30 04:15:21;;;;;;;0.00;0.00;;;;;;;;;;1750799;28;20224;-76
2023/08/30 04:16:13;;;;;;;0.00;0.00;;;;;;;;;;1753002;28;20198;-76
2023/08/30 04:17:04;;;;;;;0.00;0.00;;;;;;;;;;1752862;28;20328;-76
2023/08/30 04:17:56;;;;;;;0.00;0.00;;;;;;;;;;1753035;28;20263;-76
2023/08/30 04:18:48;;;;;;;0.00;0.00;;;;;;;;;;1751980;28;20288;-76
2023/08/30 04:19:39;;;;;;;0.00;0.00;;;;;;;;;;1753177;28;20241;-76
2023/08/30 04:20:30;;;;;;;0.00;0.00;;;;;;;;;;1750983;28;20244;-77
2023/08/30 04:21:22;;;;;;;0.00;0.00;;;;;;;;;;1752195;28;20575;-77
2023/08/30 04:22:14;;;;;;;0.00;0.00;;;;;;;;;;1750565;28;20292;-77
2023/08/30 04:23:05;;;;;;;0.00;0.00;;;;;;;;;;1752821;28;20288;-77
2023/08/30 04:23:57;;;;;;;0.00;0.00;;;;;;;;;;1751583;28;20254;-77
2023/08/30 04:24:49;;;;;;;0.00;0.00;;;;;;;;;;1753163;28;20640;-77
2023/08/30 04:25:42;;;;;;;0.00;0.00;;;;;;;;;;1751874;28;20233;-76
2023/08/30 04:26:33;;;;;;;0.00;0.00;;;;;;;;;;1748853;28;20924;-76
2023/08/30 04:27:25;;;;;;;0.00;0.00;;;;;;;;;;1751965;28;20194;-76
2023/08/30 04:28:16;;;;;;;0.00;0.00;;;;;;;;;;1752860;28;20684;-76
2023/08/30 04:29:08;;;;;;;0.00;0.00;;;;;;;;;;1754205;28;20347;-76
2023/08/30 04:29:59;;;;;;;0.00;0.00;;;;;;;;;;1752810;28;20326;-76
2023/08/30 04:30:50;;;;;;;0.00;0.00;;;;;;;;;;1750844;28;20233;-76
2023/08/30 04:31:42;;;;;;;0.00;0.00;;;;;;;;;;1749878;28;20287;-76
2023/08/30 04:32:33;;;;;;;0.00;0.00;;;;;;;;;;1752652;28;20300;-77
2023/08/30 04:33:26;;;;;;;0.00;0.00;;;;;;;;;;1749897;28;20208;-76
2023/08/30 04:34:18;;;;;;;0.00;0.00;;;;;;;;;;1752205;28;20217;-76
2023/08/30 04:35:10;;;;;;;0.00;0.00;;;;;;;;;;1750233;28;20662;-76
2023/08/30 04:36:04;;;;;;;0.00;0.00;;;;;;;;;;1751814;28;20251;-77
2023/08/30 04:36:55;;;;;;;0.00;0.00;;;;;;;;;;1748423;28;20234;-77
2023/08/30 04:37:46;;;;;;;0.00;0.00;;;;;;;;;;1753387;28;20296;-77
2023/08/30 04:38:38;;;;;;;0.00;0.00;;;;;;;;;;1749541;28;20315;-77
2023/08/30 04:39:29;;;;;;;0.00;0.00;;;;;;;;;;1752375;28;20288;-77
2023/08/30 04:40:20;;;;;;;0.00;0.00;;;;;;;;;;1750178;28;20204;-78
2023/08/30 04:41:12;;;;;;;0.00;0.00;;;;;;;;;;1752256;28;20221;-77
2023/08/30 04:42:03;;;;;;;0.00;0.00;;;;;;;;;;1752509;28;20205;-77
2023/08/30 04:42:54;;;;;;;0.00;0.00;;;;;;;;;;1752724;28;20264;-77
2023/08/30 04:43:46;;;;;;;0.00;0.00;;;;;;;;;;1751892;28;20218;-77
2023/08/30 04:44:37;;;;;;;0.00;0.00;;;;;;;;;;1752801;28;20292;-77
2023/08/30 04:45:29;;;;;;;0.00;0.00;;;;;;;;;;1752082;28;20212;-77
2023/08/30 04:46:21;;;;;;;0.00;0.00;;;;;;;;;;1752824;28;20216;-77
2023/08/30 04:47:12;;;;;;;0.00;0.00;;;;;;;;;;1753457;28;20691;-76
2023/08/30 04:48:04;;;;;;;0.00;0.00;;;;;;;;;;1752511;28;20197;-76
2023/08/30 04:48:57;;;;;;;0.00;0.00;;;;;;;;;;1751579;28;20900;-76
2023/08/30 04:49:51;;;;;;;0.00;0.00;;;;;;;;;;1753186;28;20209;-76
2023/08/30 04:50:42;;;;;;;0.00;0.00;;;;;;;;;;1751030;28;20337;-76
2023/08/30 04:51:33;;;;;;;0.00;0.00;;;;;;;;;;1748824;28;20205;-76
2023/08/30 04:52:25;;;;;;;0.00;0.00;;;;;;;;;;1751911;28;20293;-76
2023/08/30 04:53:17;;;;;;;0.00;0.00;;;;;;;;;;1754311;28;20995;-76
2023/08/30 04:54:09;;;;;;;0.00;0.00;;;;;;;;;;1751778;28;20198;-76
2023/08/30 04:55:00;;;;;;;0.00;0.00;;;;;;;;;;1749517;28;20292;-76
2023/08/30 04:55:52;;;;;;;0.00;0.00;;;;;;;;;;1749959;28;20685;-75
2023/08/30 04:56:43;;;;;;;0.00;0.00;;;;;;;;;;1753165;28;20320;-75
2023/08/30 04:57:34;;;;;;;0.00;0.00;;;;;;;;;;1752242;28;20208;-75
2023/08/30 04:58:26;;;;;;;0.00;0.00;;;;;;;;;;1746456;28;20240;-75
2023/08/30 04:59:17;;;;;;;0.00;0.00;;;;;;;;;;1746095;28;20233;-75
2023/08/30 05:00:09;;;;;;;0.00;0.00;;;;;;;;;;1745626;28;20222;-76
2023/08/30 05:01:01;;;;;;;0.00;0.00;;;;;;;;;;1745471;28;20234;-76
2023/08/30 05:01:52;;;;;;;0.00;0.00;;;;;;;;;;1745891;28;20255;-76
2023/08/30 05:02:46;;;;;;;0.00;0.00;;;;;;;;;;1746445;28;20325;-76
2023/08/30 05:03:37;;;;;;;0.00;0.00;;;;;;;;;;1745442;28;20216;-76
2023/08/30 05:04:30;;;;;;;0.00;0.00;;;;;;;;;;1746053;28;20255;-76
2023/08/30 05:05:21;;;;;;;0.00;0.00;;;;;;;;;;1745149;28;20298;-77
2023/08/30 05:06:15;;;;;;;0.00;0.00;;;;;;;;;;1745911;28;20281;-77
2023/08/30 05:07:07;;;;;;;0.00;0.00;;;;;;;;;;1745608;28;20198;-77
2023/08/30 05:07:59;;;;;;;0.00;0.00;;;;;;;;;;1745729;28;20206;-76
2023/08/30 05:08:51;;;;;;;0.00;0.00;;;;;;;;;;1745965;28;20245;-76
2023/08/30 05:09:42;;;;;;;0.00;0.00;;;;;;;;;;1745756;28;20321;-76
2023/08/30 05:10:34;;;;;;;0.00;0.00;;;;;;;;;;1744861;28;20290;-76
2023/08/30 05:11:25;;;;;;;0.00;0.00;;;;;;;;;;1745621;28;20417;-76
2023/08/30 05:12:17;;;;;;;0.00;0.00;;;;;;;;;;1746051;28;20324;-76